Terminal Aerodrome Forecast
Issued by NWS

Home | Current Version | Previous Version | Text Only | Print | Product List | Glossary Off
Versions: 1 2 3 4 5 6 7 8 9 10 11 12 13 14 15 16 17 18 19 20 21 22 23 24 25 26 27

000
FTUS41 KGYX 291120
TAFRKD
TAF
KRKD 291120Z 2912/3012 VRB04KT P6SM SKC
     FM291600 20006KT P6SM SCT050 SCT250
     FM291800 22007KT 6SM -TSRA BKN050CB
     FM292100 22006KT P6SM SCT250
      AMD LTD TO CLD VIS AND WIND=

USA.gov is the U.S. government's official web portal to all federal, state and local government web resources and services.